createdAt,value
2022-09-09T00:00:34.948Z,17.28
2022-09-09T00:01:34.861Z,17.37
2022-09-09T00:02:34.840Z,17.41
2022-09-09T00:03:34.847Z,17.27
2022-09-09T00:04:34.603Z,17.28
2022-09-09T00:05:34.521Z,17.20
2022-09-09T00:06:34.433Z,17.24
2022-09-09T00:07:34.341Z,17.07
2022-09-09T00:08:34.364Z,17.09
2022-09-09T00:09:34.180Z,17.16
2022-09-09T00:10:34.091Z,16.98
2022-09-09T00:11:34.005Z,17.13
2022-09-09T00:12:33.918Z,17.10
2022-09-09T00:13:33.842Z,17.04
2022-09-09T00:14:33.748Z,17.07
2022-09-09T00:15:33.714Z,17.14
2022-09-09T00:16:33.582Z,17.13
2022-09-09T00:17:33.512Z,17.28
2022-09-09T00:18:33.434Z,17.20
2022-09-09T00:19:33.320Z,17.32
2022-09-09T00:20:33.237Z,17.25
2022-09-09T00:21:33.151Z,17.34
2022-09-09T00:22:33.060Z,17.31
2022-09-09T00:23:32.974Z,17.25
2022-09-09T00:24:32.890Z,17.25
2022-09-09T00:25:32.809Z,17.20
2022-09-09T00:26:32.720Z,17.20
2022-09-09T00:27:32.636Z,17.32
2022-09-09T00:28:32.584Z,17.27
2022-09-09T00:29:32.465Z,17.24
2022-09-09T00:30:32.416Z,17.30
2022-09-09T00:31:32.313Z,17.31
2022-09-09T00:32:32.211Z,17.28
2022-09-09T00:33:32.125Z,17.32
2022-09-09T00:34:32.036Z,17.38
2022-09-09T00:35:31.950Z,17.37
2022-09-09T00:36:31.858Z,17.41
2022-09-09T00:37:31.779Z,17.37
2022-09-09T00:38:31.735Z,17.32
2022-09-09T00:39:31.637Z,17.32
2022-09-09T00:40:31.530Z,17.35
2022-09-09T00:41:31.439Z,17.30
2022-09-09T00:42:31.353Z,17.31
2022-09-09T00:43:31.269Z,17.41
2022-09-09T00:44:31.180Z,17.31
2022-09-09T00:45:31.094Z,17.31
2022-09-09T00:46:31.073Z,17.22
2022-09-09T00:47:30.924Z,17.24
2022-09-09T00:48:30.841Z,17.30
2022-09-09T00:49:30.755Z,17.35
2022-09-09T00:50:30.679Z,17.31
2022-09-09T00:51:30.584Z,17.28
2022-09-09T00:52:30.494Z,17.31
2022-09-09T00:53:30.406Z,17.39
2022-09-09T00:54:30.324Z,17.32
2022-09-09T00:55:30.239Z,17.35
2022-09-09T00:56:30.155Z,17.45
2022-09-09T00:57:30.069Z,17.41
2022-09-09T00:58:29.981Z,17.47
2022-09-09T00:59:29.893Z,17.53
2022-09-09T01:00:29.809Z,17.53
2022-09-09T01:01:29.777Z,17.69
2022-09-09T01:02:29.698Z,17.62
2022-09-09T01:03:29.555Z,17.62
2022-09-09T01:04:29.472Z,17.66
2022-09-09T01:05:29.382Z,17.71
2022-09-09T01:06:29.293Z,17.71
2022-09-09T01:07:29.210Z,17.66
2022-09-09T01:08:29.187Z,17.63
2022-09-09T01:09:29.042Z,17.72
2022-09-09T01:10:28.954Z,17.75
2022-09-09T01:11:28.871Z,17.62
2022-09-09T01:12:28.780Z,17.69
2022-09-09T01:13:28.697Z,17.59
2022-09-09T01:14:28.619Z,17.59
2022-09-09T01:15:28.523Z,17.50
2022-09-09T01:16:28.499Z,17.50
2022-09-09T01:17:28.358Z,17.49
2022-09-09T01:18:28.269Z,17.49
2022-09-09T01:19:28.181Z,17.45
2022-09-09T01:20:28.093Z,17.31
2022-09-09T01:21:28.013Z,17.24
2022-09-09T01:22:27.925Z,17.10
2022-09-09T01:23:27.844Z,17.14
2022-09-09T01:24:27.754Z,17.22
2022-09-09T01:25:27.668Z,17.06
2022-09-09T01:26:27.586Z,17.06
2022-09-09T01:27:27.496Z,16.97
2022-09-09T01:28:27.411Z,17.01
2022-09-09T01:29:27.330Z,16.95
2022-09-09T01:30:27.255Z,17.02
2022-09-09T01:31:27.165Z,16.90
2022-09-09T01:32:27.071Z,16.91
2022-09-09T01:33:26.985Z,16.87
2022-09-09T01:34:26.898Z,16.80
2022-09-09T01:35:26.811Z,16.80
2022-09-09T01:36:26.735Z,16.87
2022-09-09T01:37:26.645Z,16.88
2022-09-09T01:38:26.558Z,16.83
2022-09-09T01:39:26.468Z,16.92
2022-09-09T01:40:26.386Z,16.97
2022-09-09T01:41:26.299Z,16.87
2022-09-09T01:42:26.217Z,16.74
2022-09-09T01:43:26.126Z,16.77
2022-09-09T01:44:26.038Z,16.82
2022-09-09T01:45:25.952Z,16.90
2022-09-09T01:46:25.914Z,16.92
2022-09-09T01:47:25.784Z,16.87
2022-09-09T01:48:25.703Z,16.88
2022-09-09T01:49:25.613Z,16.83
2022-09-09T01:50:25.531Z,16.79
2022-09-09T01:51:25.444Z,16.88
2022-09-09T01:52:25.359Z,16.74
2022-09-09T01:53:25.273Z,16.91
2022-09-09T01:54:25.185Z,16.90
2022-09-09T01:55:25.104Z,16.91
2022-09-09T01:56:25.010Z,16.97
2022-09-09T01:57:24.929Z,16.94
2022-09-09T01:58:24.848Z,16.97
2022-09-09T01:59:24.756Z,16.92
2022-09-09T02:00:24.681Z,16.99
2022-09-09T02:01:24.645Z,16.83
2022-09-09T02:02:24.540Z,16.77
2022-09-09T02:03:24.414Z,16.74
2022-09-09T02:04:24.334Z,16.74
2022-09-09T02:05:24.243Z,16.77
2022-09-09T02:06:24.158Z,16.76
2022-09-09T02:07:24.078Z,16.90
2022-09-09T02:08:23.987Z,16.87
2022-09-09T02:09:23.902Z,16.77
2022-09-09T02:10:23.820Z,16.94
2022-09-09T02:11:23.729Z,16.82
2022-09-09T02:12:23.645Z,16.87
2022-09-09T02:13:23.565Z,16.70
2022-09-09T02:14:23.474Z,16.82
2022-09-09T02:15:23.386Z,16.90
2022-09-09T02:16:23.367Z,16.77
2022-09-09T02:17:23.213Z,16.77
2022-09-09T02:18:23.128Z,16.83
2022-09-09T02:19:23.046Z,16.77
2022-09-09T02:20:22.963Z,16.90
2022-09-09T02:21:22.880Z,16.73
2022-09-09T02:22:22.791Z,16.74
2022-09-09T02:23:22.765Z,16.74
2022-09-09T02:24:22.615Z,16.83
2022-09-09T02:25:22.535Z,16.95
2022-09-09T02:26:22.449Z,17.02
2022-09-09T02:27:22.362Z,17.09
2022-09-09T02:28:22.285Z,17.17
2022-09-09T02:29:22.189Z,16.98
2022-09-09T02:30:22.158Z,17.06
2022-09-09T02:31:22.018Z,17.14
2022-09-09T02:32:21.936Z,17.07
2022-09-09T02:33:21.851Z,16.98
2022-09-09T02:34:21.760Z,17.07
2022-09-09T02:35:21.674Z,17.10
2022-09-09T02:36:21.586Z,17.10
2022-09-09T02:37:21.505Z,17.20
2022-09-09T02:38:21.415Z,17.27
2022-09-09T02:39:21.344Z,17.25
2022-09-09T02:40:21.243Z,17.32
2022-09-09T02:41:21.163Z,17.53
2022-09-09T02:42:21.073Z,17.41
2022-09-09T02:43:20.985Z,17.28
2022-09-09T02:44:20.905Z,17.28
2022-09-09T02:45:20.820Z,17.22
2022-09-09T02:46:20.758Z,17.10
2022-09-09T02:47:20.644Z,17.16
2022-09-09T02:48:20.558Z,17.07
2022-09-09T02:49:20.474Z,17.19
2022-09-09T02:50:20.392Z,17.28
2022-09-09T02:51:20.302Z,17.32
2022-09-09T02:52:20.217Z,17.30
2022-09-09T02:53:20.135Z,17.35
2022-09-09T02:54:20.052Z,17.43
2022-09-09T02:55:19.961Z,17.52
2022-09-09T02:56:19.873Z,17.49
2022-09-09T02:57:19.790Z,17.53
2022-09-09T02:58:19.705Z,17.68
2022-09-09T02:59:19.615Z,17.68
2022-09-09T03:00:19.531Z,17.72
2022-09-09T03:01:19.505Z,17.75
2022-09-09T03:02:19.426Z,17.71
2022-09-09T03:03:19.275Z,17.65
2022-09-09T03:04:19.188Z,17.65
2022-09-09T03:05:19.096Z,17.62
2022-09-09T03:06:19.020Z,17.68
2022-09-09T03:07:18.930Z,17.69
2022-09-09T03:08:18.846Z,17.59
2022-09-09T03:09:18.761Z,17.54
2022-09-09T03:10:18.675Z,17.53
2022-09-09T03:11:18.598Z,17.47
2022-09-09T03:12:18.499Z,17.54
2022-09-09T03:13:18.408Z,17.56
2022-09-09T03:14:18.329Z,17.59
2022-09-09T03:15:18.243Z,17.56
2022-09-09T03:16:18.211Z,17.59
2022-09-09T03:17:18.073Z,17.68
2022-09-09T03:18:17.991Z,17.69
2022-09-09T03:19:17.900Z,17.68
2022-09-09T03:20:17.818Z,17.79
2022-09-09T03:21:17.734Z,17.68
2022-09-09T03:22:17.641Z,17.71
2022-09-09T03:23:17.558Z,17.66
2022-09-09T03:24:17.472Z,17.53
2022-09-09T03:25:17.395Z,17.54
2022-09-09T03:26:17.302Z,17.46
2022-09-09T03:27:17.215Z,17.39
2022-09-09T03:28:17.133Z,17.45
2022-09-09T03:29:17.047Z,17.47
2022-09-09T03:30:16.959Z,17.47
2022-09-09T03:31:16.891Z,17.34
2022-09-09T03:32:16.785Z,17.43
2022-09-09T03:33:16.703Z,17.27
2022-09-09T03:34:16.620Z,17.37
2022-09-09T03:35:16.531Z,17.25
2022-09-09T03:36:16.446Z,17.24
2022-09-09T03:37:16.359Z,17.14
2022-09-09T03:38:16.271Z,17.13
2022-09-09T03:39:16.183Z,16.94
2022-09-09T03:40:16.153Z,17.10
2022-09-09T03:41:16.017Z,17.14
2022-09-09T03:42:15.930Z,17.06
2022-09-09T03:43:15.842Z,17.07
2022-09-09T03:44:15.757Z,16.97
2022-09-09T03:45:15.667Z,17.06
2022-09-09T03:46:15.625Z,17.01
2022-09-09T03:47:15.499Z,16.91
2022-09-09T03:48:15.415Z,16.94
2022-09-09T03:49:15.329Z,16.90
2022-09-09T03:50:15.245Z,16.90
2022-09-09T03:51:15.159Z,16.97
2022-09-09T03:52:15.073Z,16.97
2022-09-09T03:53:14.986Z,16.97
2022-09-09T03:54:14.900Z,17.02
2022-09-09T03:55:14.813Z,17.06
2022-09-09T03:56:14.732Z,17.02
2022-09-09T03:57:14.644Z,16.94
2022-09-09T03:58:14.558Z,17.01
2022-09-09T03:59:14.474Z,17.01
2022-09-09T04:00:14.385Z,17.06
2022-09-09T04:01:14.580Z,17.09
2022-09-09T04:02:14.247Z,17.07
2022-09-09T04:03:14.133Z,17.09
2022-09-09T04:04:14.046Z,17.06
2022-09-09T04:05:13.956Z,17.04
2022-09-09T04:06:13.873Z,16.97
2022-09-09T04:07:13.795Z,17.12
2022-09-09T04:08:13.702Z,17.27
2022-09-09T04:09:13.618Z,17.31
2022-09-09T04:10:13.527Z,17.27
2022-09-09T04:11:13.439Z,17.28
2022-09-09T04:12:13.355Z,17.16
2022-09-09T04:13:13.271Z,17.25
2022-09-09T04:14:13.188Z,17.09
2022-09-09T04:15:13.101Z,17.17
2022-09-09T04:16:13.145Z,17.13
2022-09-09T04:17:12.941Z,17.17
2022-09-09T04:18:15.039Z,17.20
2022-09-09T04:19:12.756Z,17.20
2022-09-09T04:20:12.677Z,17.22
2022-09-09T04:21:12.589Z,17.13
2022-09-09T04:22:12.500Z,17.16
2022-09-09T04:23:12.419Z,17.12
2022-09-09T04:24:12.329Z,17.16
2022-09-09T04:25:12.245Z,17.13
2022-09-09T04:26:12.178Z,17.12
2022-09-09T04:27:12.069Z,17.25
2022-09-09T04:28:11.990Z,17.22
2022-09-09T04:29:11.901Z,17.27
2022-09-09T04:30:11.814Z,17.34
2022-09-09T04:31:11.767Z,17.25
2022-09-09T04:32:11.654Z,17.28
2022-09-09T04:33:11.565Z,17.35
2022-09-09T04:34:11.488Z,17.39
2022-09-09T04:35:11.393Z,17.32
2022-09-09T04:36:11.303Z,17.27
2022-09-09T04:37:11.218Z,17.10
2022-09-09T04:38:11.129Z,17.06
2022-09-09T04:39:11.042Z,17.16
2022-09-09T04:40:11.012Z,17.14
2022-09-09T04:41:10.876Z,17.09
2022-09-09T04:42:10.794Z,17.10
2022-09-09T04:43:14.313Z,16.99
2022-09-09T04:44:10.618Z,17.06
2022-09-09T04:45:10.529Z,17.01
2022-09-09T04:46:10.565Z,16.97
2022-09-09T04:47:10.364Z,17.02
2022-09-09T04:48:10.273Z,16.98
2022-09-09T04:49:14.979Z,16.99
2022-09-09T04:50:10.104Z,17.02
2022-09-09T04:51:10.022Z,16.97
2022-09-09T04:52:09.930Z,16.95
2022-09-09T04:53:09.844Z,16.99
2022-09-09T04:54:09.760Z,17.01
2022-09-09T04:55:09.683Z,16.98
2022-09-09T04:56:09.586Z,16.99
2022-09-09T04:57:09.505Z,17.02
2022-09-09T04:58:09.417Z,17.09
2022-09-09T04:59:09.385Z,17.09
2022-09-09T05:00:09.247Z,17.12
2022-09-09T05:01:09.223Z,17.10
2022-09-09T05:02:09.132Z,17.10
2022-09-09T05:03:08.986Z,17.13
2022-09-09T05:04:08.906Z,17.07
2022-09-09T05:05:08.824Z,16.99
2022-09-09T05:06:08.801Z,17.01
2022-09-09T05:07:08.647Z,17.09
2022-09-09T05:08:08.564Z,17.07
2022-09-09T05:09:08.481Z,17.04
2022-09-09T05:10:08.390Z,17.02
2022-09-09T05:11:08.306Z,16.95
2022-09-09T05:12:08.214Z,16.95
2022-09-09T05:13:08.133Z,16.94
2022-09-09T05:14:08.040Z,16.97
2022-09-09T05:15:07.964Z,16.94
2022-09-09T05:16:07.922Z,16.98
2022-09-09T05:17:07.793Z,17.02
2022-09-09T05:18:07.705Z,16.94
2022-09-09T05:19:07.617Z,16.91
2022-09-09T05:20:09.924Z,16.94
2022-09-09T05:21:07.447Z,17.02
2022-09-09T05:22:07.366Z,16.98
2022-09-09T05:23:07.279Z,16.99
2022-09-09T05:24:07.193Z,16.99
2022-09-09T05:25:07.108Z,16.99
2022-09-09T05:26:07.018Z,17.02
2022-09-09T05:27:06.939Z,17.13
2022-09-09T05:28:06.871Z,17.06
2022-09-09T05:29:06.767Z,17.12
2022-09-09T05:30:06.676Z,17.09
2022-09-09T05:31:06.650Z,17.12
2022-09-09T05:32:06.508Z,17.12
2022-09-09T05:33:06.428Z,17.04
2022-09-09T05:34:06.340Z,17.04
2022-09-09T05:35:06.307Z,17.09
2022-09-09T05:36:06.161Z,17.14
2022-09-09T05:37:06.076Z,17.14
2022-09-09T05:38:05.998Z,17.16
2022-09-09T05:39:05.911Z,17.25
2022-09-09T05:40:05.878Z,17.24
2022-09-09T05:41:05.739Z,17.20
2022-09-09T05:42:05.645Z,17.27
2022-09-09T05:43:05.588Z,17.34
2022-09-09T05:44:05.476Z,17.22
2022-09-09T05:45:05.395Z,17.32
2022-09-09T05:46:05.306Z,17.24
2022-09-09T05:47:05.271Z,17.27
2022-09-09T05:48:05.135Z,17.27
2022-09-09T05:49:05.049Z,17.27
2022-09-09T05:50:04.963Z,17.24
2022-09-09T05:51:04.875Z,17.24
2022-09-09T05:52:04.802Z,17.17
2022-09-09T05:53:04.725Z,17.27
2022-09-09T05:54:04.629Z,17.24
2022-09-09T05:55:04.562Z,17.27
2022-09-09T05:56:04.482Z,17.24
2022-09-09T05:57:04.399Z,17.24
2022-09-09T05:58:04.280Z,17.25
2022-09-09T05:59:04.195Z,17.25
2022-09-09T06:00:04.106Z,17.28
2022-09-09T06:01:04.021Z,17.22
2022-09-09T06:02:04.046Z,17.19
2022-09-09T06:03:03.963Z,17.24
2022-09-09T06:04:03.767Z,17.32
2022-09-09T06:05:03.681Z,17.28
2022-09-09T06:06:03.595Z,17.34
2022-09-09T06:07:03.507Z,17.25
2022-09-09T06:08:03.425Z,17.34
2022-09-09T06:09:03.339Z,17.28
2022-09-09T06:10:03.254Z,17.32
2022-09-09T06:11:03.168Z,17.35
2022-09-09T06:12:03.083Z,17.39
2022-09-09T06:13:03.000Z,17.30
2022-09-09T06:14:02.910Z,17.32
2022-09-09T06:15:02.828Z,17.25
2022-09-09T06:16:02.803Z,17.31
2022-09-09T06:17:02.654Z,17.30
2022-09-09T06:18:02.575Z,17.32
2022-09-09T06:19:02.488Z,17.31
2022-09-09T06:20:02.408Z,17.34
2022-09-09T06:21:02.309Z,17.35
2022-09-09T06:22:02.227Z,17.35
2022-09-09T06:23:02.141Z,17.28
2022-09-09T06:24:02.066Z,17.34
2022-09-09T06:25:01.970Z,17.25
2022-09-09T06:26:01.888Z,17.32
2022-09-09T06:27:01.801Z,17.34
2022-09-09T06:28:01.714Z,17.28
2022-09-09T06:29:01.632Z,17.32
2022-09-09T06:30:01.551Z,17.34
2022-09-09T06:31:01.498Z,17.41
2022-09-09T06:32:01.439Z,17.38
2022-09-09T06:33:01.290Z,17.50
2022-09-09T06:34:01.214Z,17.50
2022-09-09T06:35:01.117Z,17.50
2022-09-09T06:36:01.031Z,17.56
2022-09-09T06:37:00.963Z,17.62
2022-09-09T06:38:00.883Z,17.66
2022-09-09T06:39:00.776Z,17.71
2022-09-09T06:40:00.785Z,17.81
2022-09-09T06:41:00.603Z,17.72
2022-09-09T06:42:00.536Z,17.86
2022-09-09T06:43:00.434Z,17.83
2022-09-09T06:44:00.350Z,17.79
2022-09-09T06:45:00.272Z,17.81
2022-09-09T06:46:00.178Z,17.83
2022-09-09T06:47:00.182Z,17.83
2022-09-09T06:48:00.024Z,17.84
2022-09-09T06:48:59.938Z,17.86
2022-09-09T06:49:59.870Z,17.90
2022-09-09T06:50:59.780Z,17.93
2022-09-09T06:51:59.670Z,17.94
2022-09-09T06:52:59.577Z,17.93
2022-09-09T06:53:59.497Z,17.90
2022-09-09T06:54:59.440Z,17.94
2022-09-09T06:55:59.345Z,17.97
2022-09-09T06:57:00.746Z,17.91
2022-09-09T06:57:59.156Z,17.94
2022-09-09T06:58:59.069Z,17.94
2022-09-09T06:59:59.008Z,17.96
2022-09-09T07:00:58.931Z,17.99
2022-09-09T07:01:58.860Z,17.97
2022-09-09T07:02:58.761Z,17.91
2022-09-09T07:03:58.643Z,17.93
2022-09-09T07:04:58.594Z,17.96
2022-09-09T07:05:58.471Z,17.88
2022-09-09T07:06:58.385Z,17.94
2022-09-09T07:07:58.308Z,17.94
2022-09-09T07:08:58.213Z,17.94
2022-09-09T07:09:58.126Z,17.93
2022-09-09T07:10:58.049Z,17.96
2022-09-09T07:11:57.960Z,17.91
2022-09-09T07:12:57.876Z,17.96
2022-09-09T07:13:57.790Z,17.88
2022-09-09T07:14:57.709Z,17.90
2022-09-09T07:15:57.656Z,17.91
2022-09-09T07:16:59.643Z,17.99
2022-09-09T07:17:57.453Z,17.97
2022-09-09T07:18:57.366Z,18.01
2022-09-09T07:19:57.278Z,17.88
2022-09-09T07:20:57.205Z,17.97
2022-09-09T07:21:57.139Z,18.01
2022-09-09T07:22:57.060Z,17.99
2022-09-09T07:23:56.940Z,18.05
2022-09-09T07:24:56.848Z,18.03
2022-09-09T07:25:56.767Z,18.08
2022-09-09T07:26:56.681Z,18.05
2022-09-09T07:27:56.594Z,18.06
2022-09-09T07:28:56.513Z,18.03
2022-09-09T07:29:56.427Z,18.03
2022-09-09T07:30:56.377Z,18.05
2022-09-09T07:31:56.258Z,18.09
2022-09-09T07:32:56.194Z,18.09
2022-09-09T07:33:56.079Z,18.13
2022-09-09T07:34:56.001Z,18.11
2022-09-09T07:35:55.935Z,18.11
2022-09-09T07:36:55.840Z,18.08
2022-09-09T07:37:55.761Z,18.03
2022-09-09T07:38:55.657Z,18.06
2022-09-09T07:39:55.627Z,18.13
2022-09-09T07:40:55.496Z,18.02
2022-09-09T07:41:55.405Z,18.05
2022-09-09T07:42:55.331Z,18.11
2022-09-09T07:43:55.237Z,18.06
2022-09-09T07:44:55.147Z,18.09
2022-09-09T07:45:55.059Z,18.05
2022-09-09T07:46:55.014Z,18.11
2022-09-09T07:47:54.887Z,18.05
2022-09-09T07:48:54.808Z,18.11
2022-09-09T07:49:54.720Z,18.03
2022-09-09T07:50:54.634Z,18.08
2022-09-09T07:51:54.649Z,18.02
2022-09-09T07:52:54.466Z,18.11
2022-09-09T07:53:54.383Z,18.09
2022-09-09T07:54:54.289Z,18.12
2022-09-09T07:55:54.217Z,18.13
2022-09-09T07:56:54.125Z,18.03
2022-09-09T07:57:54.041Z,18.06
2022-09-09T07:58:53.995Z,18.03
2022-09-09T07:59:53.895Z,18.11
2022-09-09T08:00:53.788Z,18.08
2022-09-09T08:01:53.748Z,17.97
2022-09-09T08:02:53.661Z,17.99
2022-09-09T08:03:56.406Z,18.05
2022-09-09T08:04:53.442Z,18.06
2022-09-09T08:05:53.352Z,18.06
2022-09-09T08:06:53.280Z,18.05
2022-09-09T08:07:53.217Z,18.11
2022-09-09T08:08:53.093Z,18.24
2022-09-09T08:09:53.013Z,18.24
2022-09-09T08:10:52.953Z,18.33
2022-09-09T08:11:52.843Z,18.26
2022-09-09T08:13:14.868Z,18.42
2022-09-09T08:13:54.801Z,18.43
2022-09-09T08:14:55.512Z,18.56
2022-09-09T08:15:52.558Z,18.58
2022-09-09T08:16:55.051Z,18.71
2022-09-09T08:17:52.332Z,18.79
2022-09-09T08:18:52.251Z,18.85
2022-09-09T08:19:52.163Z,18.85
2022-09-09T08:20:52.078Z,18.85
2022-09-09T08:21:51.988Z,18.74
2022-09-09T08:22:51.907Z,18.76
2022-09-09T08:23:57.134Z,18.83
2022-09-09T08:24:51.730Z,18.86
2022-09-09T08:25:51.651Z,18.88
2022-09-09T08:26:51.565Z,18.85
2022-09-09T08:27:51.481Z,18.85
2022-09-09T08:28:51.399Z,18.96
2022-09-09T08:29:51.314Z,18.88
2022-09-09T08:30:51.231Z,18.86
2022-09-09T08:31:51.139Z,18.94
2022-09-09T08:32:53.782Z,18.96
2022-09-09T08:33:53.291Z,18.94
2022-09-09T08:34:54.535Z,19.05
2022-09-09T08:35:50.801Z,19.05
2022-09-09T08:36:50.731Z,19.09
2022-09-09T08:37:51.615Z,19.09
2022-09-09T08:38:50.545Z,19.20
2022-09-09T08:39:54.106Z,19.19
2022-09-09T08:40:50.376Z,19.16
2022-09-09T08:41:50.292Z,19.20
2022-09-09T08:42:50.202Z,19.23
2022-09-09T08:43:50.119Z,19.27
2022-09-09T08:44:50.036Z,19.24
2022-09-09T08:45:49.948Z,19.26
2022-09-09T08:46:49.957Z,19.19
2022-09-09T08:47:49.782Z,19.19
2022-09-09T08:48:49.690Z,19.22
2022-09-09T08:49:49.609Z,19.20
2022-09-09T08:50:49.527Z,19.22
2022-09-09T08:51:49.440Z,19.30
2022-09-09T08:52:49.379Z,19.27
2022-09-09T08:53:49.300Z,19.41
2022-09-09T08:54:52.645Z,19.49
2022-09-09T08:55:49.147Z,19.59
2022-09-09T08:56:49.044Z,19.68
2022-09-09T08:57:48.938Z,19.77
2022-09-09T08:58:48.858Z,19.84
2022-09-09T08:59:48.763Z,19.78
2022-09-09T09:00:48.709Z,19.82
2022-09-09T09:01:48.634Z,19.93
2022-09-09T09:02:48.512Z,19.92
2022-09-09T09:03:48.457Z,19.96
2022-09-09T09:04:48.426Z,19.93
2022-09-09T09:05:48.259Z,19.92
2022-09-09T09:06:48.179Z,19.89
2022-09-09T09:07:48.088Z,19.94
2022-09-09T09:08:48.004Z,19.89
2022-09-09T09:09:47.917Z,19.84
2022-09-09T09:10:47.861Z,19.86
2022-09-09T09:11:47.750Z,19.89
2022-09-09T09:12:47.666Z,19.93
2022-09-09T09:13:47.591Z,19.94
2022-09-09T09:14:47.496Z,19.90
2022-09-09T09:15:47.448Z,19.78
2022-09-09T09:16:47.326Z,19.74
2022-09-09T09:17:47.243Z,19.74
2022-09-09T09:18:47.178Z,19.77
2022-09-09T09:19:47.075Z,19.77
2022-09-09T09:20:46.991Z,19.68
2022-09-09T09:21:46.905Z,19.67
2022-09-09T09:22:46.820Z,19.64
2022-09-09T09:23:46.736Z,19.77
2022-09-09T09:24:46.655Z,19.67
2022-09-09T09:25:46.570Z,19.59
2022-09-09T09:26:46.486Z,19.78
2022-09-09T09:27:46.403Z,19.79
2022-09-09T09:28:46.319Z,19.81
2022-09-09T09:30:18.127Z,19.79
2022-09-09T09:30:46.193Z,19.93
2022-09-09T09:31:46.063Z,19.97
2022-09-09T09:32:45.978Z,20.08
2022-09-09T09:33:45.896Z,20.18
2022-09-09T09:34:45.808Z,20.11
2022-09-09T09:35:45.724Z,20.12
2022-09-09T09:36:45.673Z,20.26
2022-09-09T09:40:45.306Z,20.68
2022-09-09T09:41:45.221Z,20.74
2022-09-09T09:42:45.142Z,20.75
2022-09-09T09:43:45.053Z,20.75
2022-09-09T09:44:44.970Z,20.74
2022-09-09T09:45:55.226Z,20.77
2022-09-09T09:46:44.836Z,20.70
2022-09-09T09:47:44.732Z,20.65
2022-09-09T09:48:44.631Z,20.73
2022-09-09T09:49:44.551Z,20.85
2022-09-09T09:50:44.469Z,20.88
2022-09-09T09:51:44.375Z,21.07
2022-09-09T09:52:44.299Z,21.05
2022-09-09T09:53:44.219Z,21.01
2022-09-09T09:54:44.133Z,21.18
2022-09-09T11:12:09.213Z,23.04
2022-09-09T11:32:37.300Z,23.23
2022-09-09T11:33:27.173Z,23.26
2022-09-09T11:34:27.214Z,23.28
2022-09-09T11:35:27.050Z,23.25
2022-09-09T11:36:26.941Z,23.26
2022-09-09T11:37:26.805Z,23.08
2022-09-09T11:38:26.725Z,22.96
2022-09-09T11:39:26.661Z,22.83
2022-09-09T11:40:26.588Z,22.64
2022-09-09T11:41:26.490Z,22.58
2022-09-09T11:42:26.462Z,22.58
2022-09-09T11:43:26.404Z,22.49
2022-09-09T11:44:26.335Z,22.51
2022-09-09T11:45:26.148Z,22.56
2022-09-09T11:46:26.114Z,22.66
2022-09-09T11:47:26.004Z,22.74
2022-09-09T11:48:25.914Z,22.83
2022-09-09T11:49:25.837Z,22.96
2022-09-09T11:50:25.736Z,22.95
2022-09-09T11:51:25.675Z,22.98
2022-09-09T11:52:25.603Z,23.10
2022-09-09T11:53:25.504Z,23.21
2022-09-09T11:54:25.423Z,23.41
2022-09-09T11:55:25.334Z,23.61
2022-09-09T11:56:25.295Z,23.67
2022-09-09T11:57:25.183Z,23.61
2022-09-09T11:58:25.090Z,23.64
2022-09-09T11:59:25.062Z,23.69
2022-09-09T12:00:24.923Z,23.74
2022-09-09T12:01:24.892Z,23.78
2022-09-09T12:02:24.774Z,23.78
2022-09-09T12:03:24.683Z,23.67
2022-09-09T12:04:24.603Z,23.79
2022-09-09T12:05:24.574Z,23.82
2022-09-09T12:06:24.437Z,23.81
2022-09-09T12:07:24.371Z,23.81
2022-09-09T12:08:24.271Z,23.71
2022-09-09T12:09:24.247Z,23.60
2022-09-09T12:10:24.108Z,23.60
2022-09-09T12:11:24.030Z,23.67
2022-09-09T12:12:23.951Z,23.79
2022-09-09T12:13:23.866Z,23.88
2022-09-09T12:14:23.780Z,23.97
2022-09-09T12:15:23.705Z,23.89
2022-09-09T12:16:23.639Z,23.88
2022-09-09T12:17:23.542Z,23.70
2022-09-09T12:18:23.462Z,23.64
2022-09-09T12:19:26.367Z,23.59
2022-09-09T12:20:23.297Z,23.44
2022-09-09T12:21:23.209Z,23.45
2022-09-09T12:22:23.130Z,23.49
2022-09-09T12:23:23.049Z,23.45
2022-09-09T12:24:22.993Z,23.46
2022-09-09T12:25:23.464Z,23.54
2022-09-09T12:26:22.816Z,23.69
2022-09-09T12:27:22.793Z,23.70
2022-09-09T12:28:22.649Z,23.70
2022-09-09T12:29:22.562Z,23.74
2022-09-09T12:30:22.521Z,23.76
2022-09-09T12:31:22.393Z,23.64
2022-09-09T12:32:22.312Z,23.69
2022-09-09T12:33:22.249Z,23.88
2022-09-09T12:34:22.195Z,23.92
2022-09-09T12:35:22.068Z,23.85
2022-09-09T12:36:21.985Z,23.96
2022-09-09T12:37:21.904Z,23.98
2022-09-09T12:38:21.822Z,24.11
2022-09-09T12:39:21.753Z,24.21
2022-09-09T12:40:21.660Z,24.26
2022-09-09T12:41:21.595Z,24.34
2022-09-09T12:42:21.534Z,24.53
2022-09-09T12:43:21.414Z,24.63
2022-09-09T12:44:21.389Z,24.71
2022-09-09T12:45:21.249Z,24.97
2022-09-09T12:46:21.246Z,25.11
2022-09-09T12:47:21.119Z,25.14
2022-09-09T12:48:21.018Z,25.23
2022-09-09T12:49:20.930Z,25.21
2022-09-09T12:50:20.858Z,25.30
2022-09-09T12:51:20.776Z,25.37
2022-09-09T12:52:20.724Z,25.34
2022-09-09T12:53:24.319Z,25.33
2022-09-09T12:54:20.523Z,25.15
2022-09-09T12:55:20.446Z,25.33
2022-09-09T12:56:20.413Z,25.26
2022-09-09T12:57:20.275Z,25.15
2022-09-09T12:58:20.231Z,25.06
2022-09-09T12:59:20.122Z,25.16
2022-09-09T13:00:20.061Z,25.11
2022-09-09T13:01:20.134Z,25.00
2022-09-09T13:02:19.931Z,25.03
2022-09-09T13:03:19.797Z,24.85
2022-09-09T13:04:19.709Z,24.75
2022-09-09T13:05:19.626Z,24.63
2022-09-09T13:06:19.578Z,24.43
2022-09-09T13:07:19.530Z,24.29
2022-09-09T13:08:19.387Z,24.23
2022-09-09T13:09:19.353Z,24.15
2022-09-09T13:10:25.704Z,24.10
2022-09-09T13:11:19.150Z,24.23
2022-09-09T13:12:19.116Z,24.29
2022-09-09T13:13:18.982Z,24.33
2022-09-09T13:14:18.910Z,24.37
2022-09-09T13:15:18.824Z,24.47
2022-09-09T13:16:18.826Z,24.53
2022-09-09T13:17:18.671Z,24.71
2022-09-09T13:18:18.570Z,24.89
2022-09-09T13:19:18.496Z,25.03
2022-09-09T13:20:18.416Z,25.22
2022-09-09T13:21:18.334Z,25.12
2022-09-09T13:22:18.244Z,24.86
2022-09-09T13:23:18.169Z,25.01
2022-09-09T13:24:18.129Z,25.06
2022-09-09T13:25:18.058Z,25.11
2022-09-09T13:26:17.927Z,25.14
2022-09-09T13:27:17.850Z,24.97
2022-09-09T13:28:17.769Z,25.08
2022-09-09T13:29:17.687Z,25.18
2022-09-09T13:30:17.604Z,25.21
2022-09-09T13:31:17.582Z,25.33
2022-09-09T13:32:17.439Z,25.38
2022-09-09T13:33:17.362Z,25.33
2022-09-09T13:34:17.315Z,25.45
2022-09-09T13:35:17.244Z,25.67
2022-09-09T13:36:17.147Z,25.77
2022-09-09T13:37:17.066Z,25.41
2022-09-09T13:38:16.957Z,25.43
2022-09-09T13:39:16.889Z,25.46
2022-09-09T13:40:16.792Z,25.56
2022-09-09T13:41:16.720Z,25.38
2022-09-09T13:42:16.631Z,25.48
2022-09-09T13:43:16.607Z,25.64
2022-09-09T13:44:16.469Z,25.74
2022-09-09T13:45:16.389Z,25.66
2022-09-09T13:46:16.334Z,25.43
2022-09-09T13:47:16.226Z,25.55
2022-09-09T13:48:16.185Z,25.63
2022-09-09T13:49:16.071Z,25.66
2022-09-09T13:50:15.993Z,25.64
2022-09-09T13:51:15.915Z,25.58
2022-09-09T13:52:15.818Z,25.64
2022-09-09T13:53:15.756Z,25.64
2022-09-09T13:54:15.665Z,25.88
2022-09-09T13:55:15.579Z,25.86
2022-09-09T13:56:15.505Z,25.90
2022-09-09T13:57:15.421Z,25.70
2022-09-09T13:58:15.339Z,25.49
2022-09-09T13:59:15.286Z,25.49
2022-09-09T14:00:15.183Z,25.66
2022-09-09T14:01:15.148Z,25.78
2022-09-09T14:02:15.037Z,25.89
2022-09-09T14:03:14.945Z,26.04
2022-09-09T14:04:14.856Z,26.08
2022-09-09T14:05:14.783Z,25.74
2022-09-09T14:06:14.693Z,25.63
2022-09-09T14:07:14.613Z,25.64
2022-09-09T14:08:14.535Z,25.53
2022-09-09T14:09:14.450Z,25.40
2022-09-09T14:10:14.374Z,25.34
2022-09-09T14:11:14.290Z,25.49
2022-09-09T14:12:14.265Z,25.52
2022-09-09T14:13:14.130Z,25.33
2022-09-09T14:14:14.086Z,25.22
2022-09-09T14:15:13.970Z,25.12
2022-09-09T14:16:13.898Z,25.00
2022-09-09T14:17:13.805Z,24.86
2022-09-09T14:18:13.725Z,24.91
2022-09-09T14:19:13.654Z,25.03
2022-09-09T14:20:14.401Z,25.09
2022-09-09T14:21:13.484Z,25.01
2022-09-09T14:22:13.400Z,25.00
2022-09-09T14:23:13.363Z,25.08
2022-09-09T14:24:13.261Z,25.18
2022-09-09T14:25:13.163Z,25.23
2022-09-09T14:26:13.077Z,25.21
2022-09-09T14:27:13.019Z,25.30
2022-09-09T14:28:12.923Z,25.38
2022-09-09T14:29:12.882Z,25.40
2022-09-09T14:30:12.753Z,25.45